Terminal Aerodrome Forecast
Issued by NWS

Home | Current Version | Previous Version | Text Only | Print | Product List | Glossary On
Versions: 1 2 3 4 5 6 7 8 9 10 11 12 13 14 15
000
FTUS46 KLOX 282300 RRA
TAFOXR
TAF
KOXR 282340Z 0100/0124 27012KT P6SM VCSH SCT025 BKN040
     FM010200 28007KT 6SM -SHRA SCT025 BKN050
     FM010800 07004KT 6SM -SHRA SCT015 BKN035 BKN070
     FM011700 15005KT P6SM VCSH SCT025 BKN040
     FM012000 25010KT P6SM VCSH SCT025 BKN040
      TEMPO 0120/0124 6SM -SHRA BKN030=

USA.gov is the U.S. government's official web portal to all federal, state and local government web resources and services.